Time;durP1;ratioP1;P1;durP2;ratioP2;P2;SDS_P1;SDS_P2;PMS_P1;PMS_P2;Temp;Humidity;BMP_temperature;BMP_pressure;BME280_temperature;BME280_humidity;BME280_pressure;Samples;Min_cycle;Max_cycle;Signal;HPM_P1;HPM_P2
2024/01/30 00:00:43;;;;;;;27.35;20.02;;;;;;;4.48;100.00;102644.81;5001872;28;20103;-78
2024/01/30 00:03:10;;;;;;;27.80;19.50;;;;;;;4.48;100.00;102640.47;4991190;28;20052;-78
2024/01/30 00:05:38;;;;;;;26.00;19.83;;;;;;;4.49;100.00;102643.97;4972317;28;20046;-79
2024/01/30 00:08:06;;;;;;;23.80;18.55;;;;;;;4.48;100.00;102644.81;5005523;28;20046;-79
2024/01/30 00:10:33;;;;;;;26.67;18.80;;;;;;;4.46;100.00;102644.72;4994466;28;20045;-79
2024/01/30 00:13:01;;;;;;;23.58;18.85;;;;;;;4.44;100.00;102633.28;5005278;28;20049;-79
2024/01/30 00:15:28;;;;;;;25.90;19.70;;;;;;;4.43;100.00;102630.59;5017792;28;20676;-79
2024/01/30 00:17:56;;;;;;;25.15;19.63;;;;;;;4.39;100.00;102639.06;5003839;28;20049;-79
2024/01/30 00:20:24;;;;;;;26.45;19.40;;;;;;;4.37;100.00;102640.69;5024877;28;20045;-79
2024/01/30 00:22:52;;;;;;;44.13;19.90;;;;;;;4.36;100.00;102650.22;5003009;28;20470;-79
2024/01/30 00:25:19;;;;;;;26.90;19.55;;;;;;;4.35;100.00;102642.28;5000642;28;20659;-79
2024/01/30 00:27:47;;;;;;;24.08;19.25;;;;;;;4.35;100.00;102638.00;5010870;28;20514;-79
2024/01/30 00:30:14;;;;;;;27.50;20.80;;;;;;;4.34;100.00;102637.91;4993322;28;20045;-79
2024/01/30 00:32:42;;;;;;;23.83;19.10;;;;;;;4.30;100.00;102642.94;4997696;28;20057;-78
2024/01/30 00:35:10;;;;;;;27.55;19.77;;;;;;;4.27;100.00;102632.34;4969708;28;20555;-78
2024/01/30 00:37:38;;;;;;;28.33;19.83;;;;;;;4.25;100.00;102631.34;4971047;28;20045;-79
2024/01/30 00:40:06;;;;;;;25.95;19.50;;;;;;;4.24;100.00;102633.88;5000109;28;20046;-79
2024/01/30 00:42:33;;;;;;;26.63;18.95;;;;;;;4.21;100.00;102623.22;4976586;28;20410;-79
2024/01/30 00:45:01;;;;;;;27.13;19.58;;;;;;;4.18;100.00;102618.75;4978665;28;20057;-79
2024/01/30 00:47:29;;;;;;;26.65;19.73;;;;;;;4.16;100.00;102617.75;4978810;28;20041;-79
2024/01/30 00:49:56;;;;;;;26.75;20.65;;;;;;;4.16;100.00;102622.06;4987564;28;20045;-79
2024/01/30 00:52:23;;;;;;;28.60;20.30;;;;;;;4.15;100.00;102620.28;4949360;28;20046;-78
2024/01/30 00:54:51;;;;;;;31.02;19.90;;;;;;;4.14;100.00;102626.28;5008493;28;20380;-78
2024/01/30 00:57:18;;;;;;;29.88;19.95;;;;;;;4.14;100.00;102618.47;4974548;28;20081;-79
2024/01/30 00:59:46;;;;;;;25.98;19.63;;;;;;;4.10;100.00;102607.88;4990316;28;20068;-78
2024/01/30 01:02:15;;;;;;;27.70;19.58;;;;;;;4.07;100.00;102609.41;4981576;28;20050;-79
2024/01/30 01:04:42;;;;;;;28.55;20.80;;;;;;;4.05;100.00;102608.41;4964783;28;20040;-79
2024/01/30 01:07:10;;;;;;;34.25;20.33;;;;;;;4.02;100.00;102603.00;4941957;28;20050;-79
2024/01/30 01:09:38;;;;;;;29.45;21.23;;;;;;;4.00;100.00;102588.97;4993568;28;20069;-79
2024/01/30 01:12:06;;;;;;;26.92;20.25;;;;;;;4.00;100.00;102583.75;4980240;28;20033;-79
2024/01/30 01:14:33;;;;;;;27.30;20.92;;;;;;;4.01;100.00;102586.47;4988351;28;20038;-79
2024/01/30 01:17:01;;;;;;;29.60;21.65;;;;;;;4.04;100.00;102583.13;4988007;28;20060;-79
2024/01/30 01:19:28;;;;;;;29.38;21.10;;;;;;;4.07;100.00;102588.53;4949759;28;20046;-79
2024/01/30 01:21:56;;;;;;;26.48;20.77;;;;;;;4.08;100.00;102582.47;4989907;28;20052;-78
2024/01/30 01:24:24;;;;;;;27.48;20.40;;;;;;;4.07;100.00;102584.19;4988009;28;20491;-79
2024/01/30 01:26:52;;;;;;;26.38;21.13;;;;;;;4.08;100.00;102582.47;4975008;28;20049;-78
2024/01/30 01:29:20;;;;;;;38.33;25.20;;;;;;;4.07;100.00;102588.53;4986856;28;20049;-78
2024/01/30 01:31:48;;;;;;;38.92;26.08;;;;;;;4.08;100.00;102585.09;5009731;28;20064;-78
2024/01/30 01:34:15;;;;;;;44.47;30.35;;;;;;;4.09;100.00;102584.31;5001863;28;20053;-78
2024/01/30 01:36:43;;;;;;;47.50;30.38;;;;;;;4.12;100.00;102587.09;5009096;28;20050;-78
2024/01/30 01:39:10;;;;;;;42.88;29.02;;;;;;;4.15;100.00;102582.03;5008795;28;20052;-79
2024/01/30 01:41:38;;;;;;;37.85;28.13;;;;;;;4.15;100.00;102584.63;5030197;28;20506;-79
2024/01/30 01:44:05;;;;;;;38.60;27.38;;;;;;;4.15;100.00;102595.06;5020469;28;20445;-79
2024/01/30 01:46:33;;;;;;;37.00;25.33;;;;;;;4.16;100.00;102581.22;5030344;28;20041;-79
2024/01/30 01:49:03;;;;;;;35.55;24.30;;;;;;;4.20;100.00;102585.81;5021568;28;20049;-78
2024/01/30 01:51:33;;;;;;;30.88;23.83;;;;;;;4.20;100.00;102580.59;5008062;28;20068;-79
2024/01/30 01:54:03;;;;;;;33.13;22.70;;;;;;;4.21;100.00;102590.19;5009681;28;20049;-79
2024/01/30 01:56:33;;;;;;;31.20;22.63;;;;;;;4.21;100.00;102577.16;5014361;28;20053;-79
2024/01/30 01:59:09;;;;;;;23.60;16.60;;;;;;;4.21;100.00;102587.59;5003857;28;20045;-78
2024/01/30 02:01:37;;;;;;;29.55;22.10;;;;;;;4.19;100.00;102586.59;5018454;28;20482;-79
2024/01/30 02:04:04;;;;;;;29.40;20.70;;;;;;;4.19;100.00;102577.88;5027045;28;20800;-78
2024/01/30 02:06:34;;;;;;;28.83;21.67;;;;;;;4.14;100.00;102588.09;5005627;28;20437;-79
2024/01/30 02:09:01;;;;;;;30.88;20.10;;;;;;;4.12;100.00;102576.66;5018556;28;20052;-79
2024/01/30 02:11:29;;;;;;;29.83;20.42;;;;;;;4.08;100.00;102577.28;5000808;28;20419;-79
2024/01/30 02:13:56;;;;;;;26.23;20.10;;;;;;;4.04;100.00;102584.00;5023726;28;20509;-78
2024/01/30 02:16:23;;;;;;;30.58;20.35;;;;;;;4.00;100.00;102576.81;5045840;28;20037;-79
2024/01/30 02:18:51;;;;;;;28.02;19.92;;;;;;;3.95;100.00;102575.69;5029504;28;20064;-79
2024/01/30 02:21:19;;;;;;;29.35;19.65;;;;;;;3.90;100.00;102559.75;5027527;28;20045;-79
2024/01/30 02:23:48;;;;;;;30.27;19.73;;;;;;;3.88;100.00;102563.09;5028026;28;20068;-79
2024/01/30 02:26:15;;;;;;;26.92;20.30;;;;;;;3.85;100.00;102565.50;5006040;28;20049;-79
2024/01/30 02:28:43;;;;;;;27.40;19.42;;;;;;;3.84;100.00;102566.34;5013152;28;20494;-79
2024/01/30 02:31:10;;;;;;;27.88;20.25;;;;;;;3.82;100.00;102557.50;5003690;28;20044;-78
2024/01/30 02:33:38;;;;;;;26.13;19.48;;;;;;;3.81;100.00;102554.00;5029046;28;20056;-79
2024/01/30 02:36:05;;;;;;;24.35;18.67;;;;;;;3.81;100.00;102542.69;5025685;28;20041;-79
2024/01/30 02:38:33;;;;;;;31.00;20.63;;;;;;;3.77;100.00;102539.00;5011073;28;20063;-79
2024/01/30 02:41:00;;;;;;;29.38;20.45;;;;;;;3.80;100.00;102540.88;5028879;28;20048;-78
2024/01/30 02:43:28;;;;;;;31.70;21.08;;;;;;;3.82;100.00;102539.25;5029590;28;20434;-78
2024/01/30 02:45:55;;;;;;;32.50;22.27;;;;;;;3.85;100.00;102524.69;5013606;28;20498;-79
2024/01/30 02:48:23;;;;;;;27.80;21.33;;;;;;;3.88;100.00;102529.19;5047447;28;20044;-79
2024/01/30 02:50:50;;;;;;;31.27;21.70;;;;;;;3.88;100.00;102527.47;5013529;28;20057;-79
2024/01/30 02:53:17;;;;;;;29.30;21.10;;;;;;;3.92;100.00;102523.34;4995715;28;20050;-78
2024/01/30 02:55:45;;;;;;;27.23;21.85;;;;;;;3.95;100.00;102512.16;5019180;28;20052;-78
2024/01/30 02:58:12;;;;;;;29.70;20.17;;;;;;;3.98;100.00;102514.97;5023844;28;20402;-78
2024/01/30 03:00:40;;;;;;;29.25;21.85;;;;;;;4.01;100.00;102510.81;5047014;28;20041;-79
2024/01/30 03:03:07;;;;;;;26.77;21.33;;;;;;;4.06;100.00;102508.44;5005380;28;20053;-79
2024/01/30 03:05:34;;;;;;;31.55;22.58;;;;;;;4.10;100.00;102513.03;5030036;28;20036;-79
2024/01/30 03:08:04;;;;;;;33.17;21.65;;;;;;;4.15;100.00;102518.53;5016860;28;20052;-79
2024/01/30 03:10:31;;;;;;;32.25;22.33;;;;;;;4.18;100.00;102518.66;5029043;28;20502;-78
2024/01/30 03:12:59;;;;;;;29.75;21.65;;;;;;;4.20;100.00;102520.56;5007701;28;20052;-78
2024/01/30 03:15:26;;;;;;;30.85;22.17;;;;;;;4.21;100.00;102519.75;5029773;28;20479;-78
2024/01/30 03:17:54;;;;;;;30.98;20.65;;;;;;;4.22;100.00;102511.13;5016763;28;20052;-79
2024/01/30 03:20:22;;;;;;;29.10;20.70;;;;;;;4.21;100.00;102506.69;5027516;28;20084;-79
2024/01/30 03:22:49;;;;;;;28.95;21.38;;;;;;;4.19;100.00;102489.16;5009287;28;20422;-79
2024/01/30 03:25:17;;;;;;;26.85;20.42;;;;;;;4.18;100.00;102496.09;5012776;28;20072;-78
2024/01/30 03:27:44;;;;;;;30.98;20.13;;;;;;;4.17;100.00;102486.47;4990232;28;20410;-79
2024/01/30 03:30:11;;;;;;;31.70;21.05;;;;;;;4.18;100.00;102484.75;5025624;28;20045;-78
2024/01/30 03:32:39;;;;;;;30.23;20.30;;;;;;;4.20;100.00;102489.25;5036371;28;20096;-79
2024/01/30 03:35:07;;;;;;;28.83;20.50;;;;;;;4.23;100.00;102484.19;5017129;28;20046;-78
2024/01/30 03:37:34;;;;;;;28.10;21.33;;;;;;;4.26;100.00;102483.47;5025350;28;20058;-78
2024/01/30 03:40:03;;;;;;;30.95;21.15;;;;;;;4.25;100.00;102474.78;5003917;28;20050;-79
2024/01/30 03:42:30;;;;;;;26.70;20.10;;;;;;;4.27;100.00;102477.44;5005646;28;20034;-78
2024/01/30 03:44:58;;;;;;;31.52;20.70;;;;;;;4.27;100.00;102480.97;5008554;28;20068;-78
2024/01/30 03:47:25;;;;;;;29.73;19.95;;;;;;;4.28;100.00;102481.84;5024736;28;20057;-78
2024/01/30 03:49:52;;;;;;;27.40;18.98;;;;;;;4.28;100.00;102493.19;5019005;28;20045;-79
2024/01/30 03:52:20;;;;;;;31.80;20.30;;;;;;;4.29;100.00;102484.56;5025041;28;20056;-79
2024/01/30 03:54:48;;;;;;;28.80;21.25;;;;;;;4.31;100.00;102479.44;4991420;28;20037;-78
2024/01/30 03:57:15;;;;;;;28.92;20.67;;;;;;;4.33;100.00;102475.19;5015770;28;20490;-79
2024/01/30 03:59:43;;;;;;;26.75;20.50;;;;;;;4.36;100.00;102474.44;5009751;28;20495;-78
2024/01/30 04:02:11;;;;;;;27.50;20.42;;;;;;;4.35;100.00;102472.63;5027551;28;20045;-79
2024/01/30 04:04:39;;;;;;;29.02;21.15;;;;;;;4.36;100.00;102471.84;5012889;28;20042;-78
2024/01/30 04:07:07;;;;;;;28.98;21.10;;;;;;;4.38;100.00;102473.69;5023332;28;20072;-79
2024/01/30 04:09:34;;;;;;;29.30;20.67;;;;;;;4.39;100.00;102466.78;4993483;28;20479;-79
2024/01/30 04:12:02;;;;;;;29.98;20.83;;;;;;;4.39;100.00;102472.91;5011393;28;20047;-79
2024/01/30 04:14:30;;;;;;;27.35;19.83;;;;;;;4.41;100.00;102459.94;5011374;28;20033;-79
2024/01/30 04:16:57;;;;;;;31.10;21.42;;;;;;;4.44;100.00;102460.09;5011599;28;20053;-79
2024/01/30 04:19:25;;;;;;;30.95;20.70;;;;;;;4.44;100.00;102440.13;5003604;28;20042;-79
2024/01/30 04:21:53;;;;;;;28.13;20.08;;;;;;;4.44;100.00;102436.59;5011369;28;20049;-78
2024/01/30 04:24:20;;;;;;;26.10;20.77;;;;;;;4.43;100.00;102427.88;5011105;28;20049;-79
2024/01/30 04:26:48;;;;;;;27.55;19.42;;;;;;;4.44;100.00;102423.53;4995469;28;20094;-78
2024/01/30 04:29:15;;;;;;;27.65;20.23;;;;;;;4.44;100.00;102411.41;5001190;28;20052;-79
2024/01/30 04:31:42;;;;;;;26.42;21.17;;;;;;;4.45;100.00;102413.19;5029808;28;20053;-79
2024/01/30 04:34:10;;;;;;;29.30;20.80;;;;;;;4.46;100.00;102411.47;5010076;28;20045;-79
2024/01/30 04:36:37;;;;;;;29.20;21.80;;;;;;;4.49;100.00;102417.75;5004772;28;20072;-79
2024/01/30 04:39:05;;;;;;;30.15;21.15;;;;;;;4.53;100.00;102436.19;5009483;28;20525;-79
2024/01/30 04:41:32;;;;;;;28.92;20.63;;;;;;;4.56;100.00;102450.31;4994865;28;20052;-78
2024/01/30 04:43:59;;;;;;;26.27;19.90;;;;;;;4.61;100.00;102447.94;5011263;28;20634;-78
2024/01/30 04:46:28;;;;;;;29.58;20.98;;;;;;;4.64;100.00;102424.59;4992145;28;20053;-79
2024/01/30 04:48:55;;;;;;;35.25;22.05;;;;;;;4.64;100.00;102433.34;5025667;28;20068;-79
2024/01/30 04:51:23;;;;;;;32.92;21.58;;;;;;;4.68;100.00;102432.66;5002941;28;20045;-79
2024/01/30 04:53:50;;;;;;;29.10;21.70;;;;;;;4.71;100.00;102428.41;5028284;28;20053;-79
2024/01/30 04:56:18;;;;;;;27.73;20.80;;;;;;;4.74;100.00;102421.66;4992279;28;20048;-79
2024/01/30 04:58:45;;;;;;;29.65;21.33;;;;;;;4.77;100.00;102436.59;5015216;28;20050;-78
2024/01/30 05:01:16;;;;;;;32.83;20.05;;;;;;;4.78;100.00;102441.91;4983687;28;20052;-79
2024/01/30 05:03:44;;;;;;;30.10;19.83;;;;;;;4.81;100.00;102449.00;5007702;28;20510;-78
2024/01/30 05:06:12;;;;;;;28.35;20.63;;;;;;;4.82;100.00;102445.56;4986200;28;20061;-79
2024/01/30 05:08:39;;;;;;;29.00;20.50;;;;;;;4.84;100.00;102428.28;5019653;28;20406;-78
2024/01/30 05:11:07;;;;;;;28.35;20.88;;;;;;;4.86;100.00;102430.13;4988847;28;20542;-79
2024/01/30 05:13:34;;;;;;;29.83;19.67;;;;;;;4.88;100.00;102430.22;5015361;28;20053;-78
2024/01/30 05:16:03;;;;;;;28.98;20.83;;;;;;;4.92;100.00;102426.06;5008254;28;20041;-79
2024/01/30 05:18:31;;;;;;;25.42;20.10;;;;;;;4.92;100.00;102429.56;5015459;28;20052;-79
2024/01/30 05:20:59;;;;;;;28.50;19.60;;;;;;;4.94;100.00;102421.81;5009282;28;20049;-78
2024/01/30 05:23:26;;;;;;;25.08;18.65;;;;;;;4.96;100.00;102407.09;4991830;28;20514;-79
2024/01/30 05:25:54;;;;;;;26.42;19.05;;;;;;;4.98;100.00;102397.63;5009731;28;20419;-80
2024/01/30 05:28:21;;;;;;;25.40;20.02;;;;;;;4.98;100.00;102393.28;5021928;28;20053;-78
2024/01/30 05:30:49;;;;;;;23.38;19.08;;;;;;;5.02;100.00;102381.28;5024488;28;20515;-79
2024/01/30 05:33:16;;;;;;;26.75;20.00;;;;;;;5.03;100.00;102373.53;4988254;28;20088;-79
2024/01/30 05:35:44;;;;;;;27.27;18.80;;;;;;;5.06;100.00;102373.66;5006796;28;20041;-79
2024/01/30 05:38:12;;;;;;;23.95;19.75;;;;;;;5.11;100.00;102367.78;5001240;28;20049;-79
2024/01/30 05:40:40;;;;;;;25.88;19.52;;;;;;;5.14;100.00;102381.00;4991053;28;20061;-78
2024/01/30 05:43:07;;;;;;;27.77;18.98;;;;;;;5.18;100.00;102370.78;4973236;28;20084;-78
2024/01/30 05:45:35;;;;;;;26.33;19.52;;;;;;;5.20;100.00;102376.09;4991132;28;20068;-80
2024/01/30 05:48:04;;;;;;;24.10;17.77;;;;;;;5.22;100.00;102380.56;4971945;28;20060;-77
2024/01/30 05:50:32;;;;;;;24.15;17.05;;;;;;;5.24;100.00;102370.19;5001424;28;20499;-80
2024/01/30 05:52:59;;;;;;;22.55;18.13;;;;;;;5.27;100.00;102370.31;5004192;28;20049;-79
2024/01/30 05:55:27;;;;;;;24.13;16.90;;;;;;;5.29;100.00;102358.22;5000862;28;20490;-79
2024/01/30 05:57:54;;;;;;;22.98;17.08;;;;;;;5.32;100.00;102355.78;5005776;28;20045;-79
2024/01/30 06:00:22;;;;;;;20.95;15.93;;;;;;;5.35;100.00;102358.53;4989352;28;20491;-78
2024/01/30 06:02:49;;;;;;;22.55;16.13;;;;;;;5.37;100.00;102367.34;4979319;28;20045;-79
2024/01/30 06:05:17;;;;;;;20.45;16.35;;;;;;;5.39;100.00;102364.81;5009614;28;20077;-79
2024/01/30 06:07:44;;;;;;;24.65;16.55;;;;;;;5.39;100.00;102364.81;5007302;28;20045;-79
2024/01/30 06:10:12;;;;;;;23.40;17.20;;;;;;;5.41;100.00;102360.56;4988304;28;20502;-79
2024/01/30 06:12:40;;;;;;;23.88;17.42;;;;;;;5.41;100.00;102374.53;5006980;28;20761;-79
2024/01/30 06:15:08;;;;;;;24.48;18.23;;;;;;;5.43;100.00;102387.69;5005435;28;20082;-79
2024/01/30 06:17:35;;;;;;;23.30;17.70;;;;;;;5.43;100.00;102385.06;5006408;28;20053;-79
2024/01/30 06:20:04;;;;;;;24.65;16.10;;;;;;;5.43;100.00;102393.78;4967833;28;20465;-79
2024/01/30 06:22:31;;;;;;;25.02;17.40;;;;;;;5.43;100.00;102385.94;5006368;28;20052;-79
2024/01/30 06:24:59;;;;;;;21.58;16.67;;;;;;;5.44;100.00;102386.84;4997943;28;20053;-79
2024/01/30 06:27:27;;;;;;;25.48;18.00;;;;;;;5.44;100.00;102387.75;4992666;28;20053;-80
2024/01/30 06:29:54;;;;;;;23.20;16.00;;;;;;;5.43;100.00;102393.78;5024831;28;20045;-79
2024/01/30 06:32:22;;;;;;;22.35;16.77;;;;;;;5.44;100.00;102394.69;4985871;28;20462;-79
2024/01/30 06:34:49;;;;;;;23.63;16.73;;;;;;;5.46;100.00;102393.94;4956171;28;20049;-79
2024/01/30 06:37:16;;;;;;;24.27;16.15;;;;;;;5.48;100.00;102386.16;4988362;28;20034;-79
2024/01/30 06:39:44;;;;;;;21.48;15.15;;;;;;;5.50;100.00;102381.00;4986388;28;20049;-80
2024/01/30 06:42:11;;;;;;;22.65;15.88;;;;;;;5.52;100.00;102384.59;4977967;28;20064;-79
2024/01/30 06:44:39;;;;;;;22.38;15.95;;;;;;;5.53;100.00;102383.78;4987170;28;20057;-80
2024/01/30 06:47:06;;;;;;;22.73;16.13;;;;;;;5.54;100.00;102382.94;4974958;28;20419;-79
2024/01/30 06:49:34;;;;;;;20.83;15.45;;;;;;;5.54;100.00;102369.88;4976449;28;20045;-79
2024/01/30 06:52:02;;;;;;;18.83;15.25;;;;;;;5.55;100.00;102367.34;4981695;28;20662;-78
2024/01/30 06:54:29;;;;;;;20.77;15.18;;;;;;;5.57;100.00;102367.41;5009236;28;20396;-79
2024/01/30 06:56:57;;;;;;;19.30;15.05;;;;;;;5.58;100.00;102361.38;4975685;28;20077;-79
2024/01/30 06:59:24;;;;;;;20.05;14.65;;;;;;;5.59;100.00;102363.16;4957149;28;20054;-79
2024/01/30 07:01:52;;;;;;;20.98;14.55;;;;;;;5.61;100.00;102375.50;4952033;28;20050;-79
2024/01/30 07:04:19;;;;;;;20.35;14.13;;;;;;;5.63;100.00;102383.38;4978125;28;20045;-79
2024/01/30 07:06:49;;;;;;;18.77;14.38;;;;;;;5.65;100.00;102384.34;4963243;28;20050;-79
2024/01/30 07:09:17;;;;;;;18.35;13.98;;;;;;;5.66;100.00;102392.28;4989192;28;20054;-78
2024/01/30 07:11:44;;;;;;;19.52;15.07;;;;;;;5.68;100.00;102386.25;4970102;28;20060;-81
2024/01/30 07:14:12;;;;;;;24.20;16.92;;;;;;;5.70;100.00;102369.78;4988660;28;20046;-79
2024/01/30 07:16:39;;;;;;;16.40;13.75;;;;;;;5.70;100.00;102375.00;4989747;28;20100;-80
2024/01/30 07:19:09;;;;;;;17.60;14.50;;;;;;;5.72;100.00;102378.59;4966141;28;20037;-79
2024/01/30 07:21:37;;;;;;;20.40;14.87;;;;;;;5.74;100.00;102369.09;4957536;28;20049;-76
2024/01/30 07:24:04;;;;;;;17.60;14.30;;;;;;;5.74;100.00;102363.88;4979543;28;20053;-79
2024/01/30 07:26:32;;;;;;;18.48;13.77;;;;;;;5.76;100.00;102351.75;4987319;28;20054;-79
2024/01/30 07:28:59;;;;;;;17.88;14.18;;;;;;;5.76;100.00;102338.69;4978629;28;20054;-79
2024/01/30 07:31:26;;;;;;;19.33;13.95;;;;;;;5.77;100.00;102364.03;4961093;28;21673;-79
2024/01/30 07:33:58;;;;;;;17.52;14.23;;;;;;;5.78;100.00;102368.41;4969534;28;20529;-78
2024/01/30 07:36:26;;;;;;;18.38;14.75;;;;;;;5.80;100.00;102352.81;4973222;28;20658;-79
2024/01/30 07:38:54;;;;;;;19.95;13.93;;;;;;;5.82;100.00;102357.31;5012839;28;20042;-79
2024/01/30 07:41:22;;;;;;;25.42;15.35;;;;;;;5.83;100.00;102369.53;5001626;28;20461;-79
2024/01/30 07:43:50;;;;;;;19.95;14.88;;;;;;;5.85;100.00;102362.66;4999985;28;20041;-79
2024/01/30 07:46:18;;;;;;;20.02;14.38;;;;;;;5.87;100.00;102362.72;5006040;28;20060;-79
2024/01/30 07:48:45;;;;;;;16.10;13.05;;;;;;;5.90;100.00;102355.03;4972648;28;20053;-79
2024/01/30 07:51:13;;;;;;;19.67;14.38;;;;;;;5.92;100.00;102382.16;5010833;28;20056;-80
2024/01/30 07:53:41;;;;;;;20.52;15.77;;;;;;;5.95;100.00;102399.72;4967052;28;20068;-80
2024/01/30 07:56:09;;;;;;;20.48;15.20;;;;;;;5.97;100.00;102385.03;5022159;28;20426;-79
2024/01/30 07:58:37;;;;;;;19.45;15.05;;;;;;;5.98;100.00;102381.59;5006552;28;20046;-79
2024/01/30 08:01:04;;;;;;;18.88;14.93;;;;;;;6.00;100.00;102391.28;5007514;28;20060;-79
2024/01/30 08:03:32;;;;;;;18.95;13.85;;;;;;;6.01;100.00;102400.97;5002749;28;20057;-79
2024/01/30 08:05:59;;;;;;;18.92;14.40;;;;;;;6.02;100.00;102396.59;4973980;28;20513;-80
2024/01/30 08:08:27;;;;;;;21.48;15.00;;;;;;;6.02;100.00;102387.03;4986256;28;20053;-79
2024/01/30 08:10:54;;;;;;;17.77;14.10;;;;;;;6.02;100.00;102397.50;5008686;28;20045;-78
2024/01/30 08:13:22;;;;;;;19.88;14.63;;;;;;;6.03;100.00;102388.84;4995751;28;20049;-79
2024/01/30 08:15:49;;;;;;;19.83;14.73;;;;;;;6.04;100.00;102385.38;4988898;28;20052;-78
2024/01/30 08:18:17;;;;;;;19.80;15.00;;;;;;;6.05;100.00;102384.56;4997123;28;20430;-79
2024/01/30 08:20:44;;;;;;;18.35;14.95;;;;;;;6.07;100.00;102383.72;5003246;28;20058;-78
2024/01/30 08:23:12;;;;;;;19.27;14.57;;;;;;;6.09;100.00;102388.22;4993934;28;20038;-79
2024/01/30 08:25:39;;;;;;;23.00;14.90;;;;;;;6.12;100.00;102395.31;5020115;28;20046;-78
2024/01/30 08:28:07;;;;;;;19.70;14.55;;;;;;;6.14;100.00;102399.78;5000974;28;20060;-79
2024/01/30 08:30:35;;;;;;;20.17;15.43;;;;;;;6.16;100.00;102390.31;4999278;28;20056;-79
2024/01/30 08:33:02;;;;;;;17.70;14.60;;;;;;;6.19;100.00;102405.25;4985388;28;20054;-79
2024/01/30 08:35:33;;;;;;;18.02;14.88;;;;;;;6.21;100.00;102403.59;4972081;28;20053;-78
2024/01/30 08:38:01;;;;;;;20.63;14.98;;;;;;;6.22;100.00;102390.56;4997426;28;20511;-79
2024/01/30 08:40:32;;;;;;;17.85;14.73;;;;;;;6.25;100.00;102392.44;4983390;28;20279;-79
2024/01/30 08:42:59;;;;;;;19.08;14.88;;;;;;;6.28;100.00;102400.44;4983289;28;20064;-77
2024/01/30 08:45:28;;;;;;;21.75;14.57;;;;;;;6.30;100.00;102406.63;4974197;28;20053;-82
2024/01/30 08:47:56;;;;;;;16.33;14.48;;;;;;;6.33;100.00;102411.09;4995304;28;20916;-78
2024/01/30 08:50:23;;;;;;;22.58;14.32;;;;;;;6.37;100.00;102405.16;5008993;28;20053;-79
2024/01/30 08:52:51;;;;;;;20.10;14.32;;;;;;;6.39;100.00;102409.66;4972541;28;20057;-79
2024/01/30 08:55:18;;;;;;;20.35;14.40;;;;;;;6.43;100.00;102421.19;4962662;28;20401;-78
2024/01/30 08:57:46;;;;;;;17.65;13.82;;;;;;;6.46;100.00;102412.56;4991016;28;20053;-79
2024/01/30 09:00:14;;;;;;;20.23;14.05;;;;;;;6.50;100.00;102414.47;4971899;28;20062;-78
2024/01/30 09:02:42;;;;;;;15.90;14.20;;;;;;;6.53;100.00;102428.63;4986195;28;20050;-79
2024/01/30 09:05:09;;;;;;;15.85;13.50;;;;;;;6.56;100.00;102422.59;4990163;28;20050;-79
2024/01/30 09:07:37;;;;;;;18.30;13.73;;;;;;;6.58;100.00;102421.88;4972612;28;20046;-78
2024/01/30 09:10:06;;;;;;;17.60;14.13;;;;;;;6.61;100.00;102432.47;4980030;28;20052;-81
2024/01/30 09:12:35;;;;;;;18.50;13.35;;;;;;;6.65;100.00;102423.03;4981018;28;20694;-77
2024/01/30 09:15:03;;;;;;;19.33;13.98;;;;;;;6.71;100.00;102422.41;4967237;28;20077;-78
2024/01/30 09:17:30;;;;;;;19.88;13.25;;;;;;;6.75;100.00;102403.38;4974441;28;20053;-78
2024/01/30 09:19:58;;;;;;;17.42;13.68;;;;;;;6.83;100.00;102409.84;4989729;28;20057;-79
2024/01/30 09:22:26;;;;;;;19.60;13.38;;;;;;;6.88;100.00;102407.41;4979552;28;20238;-79
2024/01/30 09:24:53;;;;;;;18.90;12.63;;;;;;;6.93;100.00;102414.66;4985563;28;20034;-78
2024/01/30 09:27:22;;;;;;;21.60;12.52;;;;;;;6.98;100.00;102423.63;4969244;28;20026;-79
2024/01/30 09:29:50;;;;;;;18.52;12.20;;;;;;;7.02;100.00;102422.91;4980080;28;20054;-79
2024/01/30 09:32:18;;;;;;;16.33;11.77;;;;;;;7.08;100.00;102429.25;4979407;28;21020;-78
2024/01/30 09:34:46;;;;;;;14.07;12.00;;;;;;;7.11;100.00;102427.66;5017791;28;20553;-79
2024/01/30 09:37:15;;;;;;;19.50;12.88;;;;;;;7.15;100.00;102432.19;5029383;28;20040;-78
2024/01/30 09:39:42;;;;;;;18.58;13.25;;;;;;;7.19;100.00;102433.22;5024614;28;20049;-78
2024/01/30 09:42:28;;;;;;;17.42;12.18;;;;;;;7.24;100.00;102434.31;4991007;28;20060;-78
2024/01/30 09:44:56;;;;;;;18.00;11.63;;;;;;;7.29;100.00;102435.41;5032587;28;20410;-78
2024/01/30 09:47:24;;;;;;;15.07;12.32;;;;;;;7.32;100.00;102418.91;5022823;28;20478;-78
2024/01/30 09:49:52;;;;;;;22.08;12.70;;;;;;;7.38;100.00;102427.03;5032455;28;20045;-78
2024/01/30 09:52:19;;;;;;;16.17;11.57;;;;;;;7.42;100.00;102421.97;5025444;28;20536;-79
2024/01/30 09:54:51;;;;;;;15.38;10.93;;;;;;;7.49;100.00;102427.47;4992971;28;20056;-81
2024/01/30 09:57:18;;;;;;;16.25;11.10;;;;;;;7.56;100.00;102424.25;5007833;28;20052;-78
2024/01/30 09:59:45;;;;;;;16.42;12.52;;;;;;;7.64;100.00;102421.94;5028716;28;20446;-78
2024/01/30 10:02:13;;;;;;;13.35;11.60;;;;;;;7.73;100.00;102422.31;5027051;28;20518;-79
2024/01/30 10:04:41;;;;;;;15.40;10.88;;;;;;;7.80;100.00;102425.22;5003145;28;20060;-79
2024/01/30 10:07:10;;;;;;;14.55;11.00;;;;;;;7.89;100.00;102427.34;5025375;28;20663;-79
2024/01/30 10:09:38;;;;;;;20.70;11.95;;;;;;;7.96;100.00;102421.50;5031227;28;20041;-78
2024/01/30 10:12:06;;;;;;;17.88;11.48;;;;;;;8.04;100.00;102418.28;4989756;28;20045;-78
2024/01/30 10:14:33;;;;;;;15.15;10.68;;;;;;;8.12;100.00;102412.47;5013357;28;20056;-78
2024/01/30 10:17:01;;;;;;;16.35;11.48;;;;;;;8.19;100.00;102419.75;5036226;28;20064;-78
2024/01/30 10:19:33;;;;;;;13.48;10.85;;;;;;;8.23;100.00;102406.75;5018384;28;20048;-78
2024/01/30 10:22:01;;;;;;;16.50;10.90;;;;;;;8.28;100.00;102410.44;5032944;28;20163;-78
2024/01/30 10:24:29;;;;;;;18.13;10.93;;;;;;;8.32;100.00;102404.47;5012224;28;20435;-78
2024/01/30 10:26:57;;;;;;;15.02;11.32;;;;;;;8.37;100.00;102416.03;5008221;28;20044;-79
2024/01/30 10:29:25;;;;;;;16.13;10.25;;;;;;;8.42;100.00;102411.88;5024116;28;20053;-78
2024/01/30 10:32:02;;;;;;;17.20;10.20;;;;;;;8.47;100.00;102406.78;4996082;28;20049;-79
2024/01/30 10:34:30;;;;;;;17.35;10.95;;;;;;;8.50;100.00;102405.16;5008400;28;20049;-79
2024/01/30 10:37:15;;;;;;;20.70;10.70;;;;;;;8.57;100.00;102401.94;5010288;28;20048;-78
2024/01/30 10:39:45;;;;;;;13.23;10.57;;;;;;;8.66;100.00;102410.97;5018760;28;20491;-78
2024/01/30 10:42:15;;;;;;;16.17;10.73;;;;;;;8.71;100.00;102417.31;5011958;28;20040;-79
2024/01/30 10:44:59;;;;;;;13.77;10.75;;;;;;;8.76;100.00;102408.75;5005790;28;20048;-79
2024/01/30 10:47:28;;;;;;;15.93;10.25;;;;;;;8.81;100.00;102408.00;5009341;28;20056;-81
2024/01/30 10:49:57;;;;;;;17.02;10.68;;;;;;;8.82;100.00;102405.44;5016528;28;20053;-78
2024/01/30 10:52:25;;;;;;;18.02;11.73;;;;;;;8.83;100.00;102404.59;5025578;28;20056;-79
2024/01/30 10:54:54;;;;;;;19.35;11.02;;;;;;;8.83;100.00;102409.88;5012388;28;20057;-78
2024/01/30 10:57:28;;;;;;;13.38;10.18;;;;;;;8.84;100.00;102419.53;5015088;28;20107;-79
2024/01/30 10:59:58;;;;;;;15.15;11.13;;;;;;;8.83;100.00;102407.25;5025866;28;20052;-79
2024/01/30 11:02:26;;;;;;;18.15;10.68;;;;;;;8.81;100.00;102411.56;5020519;28;20600;-79
2024/01/30 11:04:59;;;;;;;18.35;10.45;;;;;;;8.82;100.00;102415.94;5017880;28;20060;-79
2024/01/30 11:07:29;;;;;;;17.15;10.85;;;;;;;8.82;100.00;102415.06;5001826;28;20049;-78
2024/01/30 11:09:57;;;;;;;20.73;10.30;;;;;;;8.81;100.00;102411.56;5029323;28;20041;-78
2024/01/30 11:12:25;;;;;;;17.63;10.85;;;;;;;8.79;100.00;102415.84;5030704;28;20071;-78